sensor_id;sensor_type;location;lat;lon;timestamp;P1;durP1;ratioP1;P2;durP2;ratioP2
54171;SDS011;40076;52.354;4.970;2023-05-10T00:01:23;45.03;;;31.17;;
54171;SDS011;40076;52.354;4.970;2023-05-10T00:03:49;46.60;;;31.20;;
54171;SDS011;40076;52.354;4.970;2023-05-10T00:06:14;44.58;;;30.88;;
54171;SDS011;40076;52.354;4.970;2023-05-10T00:08:40;43.42;;;31.45;;
54171;SDS011;40076;52.354;4.970;2023-05-10T00:11:05;45.28;;;31.05;;
54171;SDS011;40076;52.354;4.970;2023-05-10T00:13:31;42.55;;;30.35;;
54171;SDS011;40076;52.354;4.970;2023-05-10T00:15:57;48.55;;;32.67;;
54171;SDS011;40076;52.354;4.970;2023-05-10T00:18:22;42.70;;;31.02;;
54171;SDS011;40076;52.354;4.970;2023-05-10T00:20:47;42.47;;;30.75;;
54171;SDS011;40076;52.354;4.970;2023-05-10T00:23:13;42.63;;;30.88;;
54171;SDS011;40076;52.354;4.970;2023-05-10T00:25:39;43.05;;;31.27;;
54171;SDS011;40076;52.354;4.970;2023-05-10T00:28:04;45.90;;;33.30;;
54171;SDS011;40076;52.354;4.970;2023-05-10T00:30:30;44.33;;;31.83;;
54171;SDS011;40076;52.354;4.970;2023-05-10T00:32:55;44.42;;;30.50;;
54171;SDS011;40076;52.354;4.970;2023-05-10T00:35:20;44.78;;;32.47;;
54171;SDS011;40076;52.354;4.970;2023-05-10T00:37:46;52.78;;;34.65;;
54171;SDS011;40076;52.354;4.970;2023-05-10T00:40:12;43.90;;;32.30;;
54171;SDS011;40076;52.354;4.970;2023-05-10T00:42:37;48.38;;;33.30;;
54171;SDS011;40076;52.354;4.970;2023-05-10T00:45:03;48.33;;;33.55;;
54171;SDS011;40076;52.354;4.970;2023-05-10T00:47:28;43.08;;;32.05;;
54171;SDS011;40076;52.354;4.970;2023-05-10T00:49:54;40.92;;;31.20;;
54171;SDS011;40076;52.354;4.970;2023-05-10T00:52:20;41.25;;;30.70;;
54171;SDS011;40076;52.354;4.970;2023-05-10T00:54:48;41.60;;;29.33;;
54171;SDS011;40076;52.354;4.970;2023-05-10T00:57:14;45.70;;;30.52;;
54171;SDS011;40076;52.354;4.970;2023-05-10T00:59:39;40.30;;;29.88;;
54171;SDS011;40076;52.354;4.970;2023-05-10T01:02:05;41.03;;;28.80;;
54171;SDS011;40076;52.354;4.970;2023-05-10T01:04:31;44.92;;;31.92;;
54171;SDS011;40076;52.354;4.970;2023-05-10T01:06:57;42.08;;;30.13;;
54171;SDS011;40076;52.354;4.970;2023-05-10T01:09:22;42.92;;;28.73;;
54171;SDS011;40076;52.354;4.970;2023-05-10T01:11:50;42.70;;;31.35;;
54171;SDS011;40076;52.354;4.970;2023-05-10T01:14:16;46.10;;;31.90;;
54171;SDS011;40076;52.354;4.970;2023-05-10T01:16:44;44.70;;;31.75;;
54171;SDS011;40076;52.354;4.970;2023-05-10T01:19:28;41.22;;;30.85;;
54171;SDS011;40076;52.354;4.970;2023-05-10T01:33:18;59.50;;;36.65;;
54171;SDS011;40076;52.354;4.970;2023-05-10T01:38:43;60.10;;;39.30;;
54171;SDS011;40076;52.354;4.970;2023-05-10T01:44:35;63.38;;;40.25;;
54171;SDS011;40076;52.354;4.970;2023-05-10T01:47:12;59.95;;;39.17;;
54171;SDS011;40076;52.354;4.970;2023-05-10T01:49:42;64.70;;;40.60;;
54171;SDS011;40076;52.354;4.970;2023-05-10T01:52:12;59.45;;;39.60;;
54171;SDS011;40076;52.354;4.970;2023-05-10T01:54:42;63.95;;;41.78;;
54171;SDS011;40076;52.354;4.970;2023-05-10T01:57:13;61.63;;;39.53;;
54171;SDS011;40076;52.354;4.970;2023-05-10T01:59:40;61.63;;;38.70;;
54171;SDS011;40076;52.354;4.970;2023-05-10T02:02:10;60.38;;;40.20;;
54171;SDS011;40076;52.354;4.970;2023-05-10T02:04:37;66.15;;;41.13;;
54171;SDS011;40076;52.354;4.970;2023-05-10T02:07:04;65.47;;;41.70;;
54171;SDS011;40076;52.354;4.970;2023-05-10T02:09:30;64.15;;;42.28;;
54171;SDS011;40076;52.354;4.970;2023-05-10T02:11:58;62.45;;;41.13;;
54171;SDS011;40076;52.354;4.970;2023-05-10T02:14:27;62.17;;;41.70;;
54171;SDS011;40076;52.354;4.970;2023-05-10T02:16:55;67.80;;;43.55;;
54171;SDS011;40076;52.354;4.970;2023-05-10T02:19:23;66.55;;;43.20;;
54171;SDS011;40076;52.354;4.970;2023-05-10T02:21:50;68.53;;;43.08;;
54171;SDS011;40076;52.354;4.970;2023-05-10T02:24:16;67.03;;;41.90;;
54171;SDS011;40076;52.354;4.970;2023-05-10T02:26:44;68.57;;;43.50;;
54171;SDS011;40076;52.354;4.970;2023-05-10T02:29:12;69.93;;;44.72;;
54171;SDS011;40076;52.354;4.970;2023-05-10T02:31:38;71.47;;;44.55;;
54171;SDS011;40076;52.354;4.970;2023-05-10T02:34:05;68.38;;;44.40;;
54171;SDS011;40076;52.354;4.970;2023-05-10T02:36:32;75.75;;;46.72;;
54171;SDS011;40076;52.354;4.970;2023-05-10T02:38:58;72.05;;;42.80;;
54171;SDS011;40076;52.354;4.970;2023-05-10T02:41:26;79.22;;;44.88;;
54171;SDS011;40076;52.354;4.970;2023-05-10T02:43:54;67.22;;;40.22;;
54171;SDS011;40076;52.354;4.970;2023-05-10T02:46:24;77.78;;;43.15;;
54171;SDS011;40076;52.354;4.970;2023-05-10T02:48:49;66.40;;;39.20;;
54171;SDS011;40076;52.354;4.970;2023-05-10T02:51:15;68.05;;;39.97;;
54171;SDS011;40076;52.354;4.970;2023-05-10T02:53:43;67.55;;;39.97;;
54171;SDS011;40076;52.354;4.970;2023-05-10T02:56:15;68.13;;;39.60;;
54171;SDS011;40076;52.354;4.970;2023-05-10T02:58:48;61.47;;;37.70;;
54171;SDS011;40076;52.354;4.970;2023-05-10T03:01:13;51.75;;;32.95;;
54171;SDS011;40076;52.354;4.970;2023-05-10T03:03:39;54.60;;;34.78;;
54171;SDS011;40076;52.354;4.970;2023-05-10T03:06:04;57.20;;;35.00;;
54171;SDS011;40076;52.354;4.970;2023-05-10T03:08:30;52.78;;;36.53;;
54171;SDS011;40076;52.354;4.970;2023-05-10T03:14:06;55.33;;;35.55;;
54171;SDS011;40076;52.354;4.970;2023-05-10T03:16:42;56.78;;;35.58;;
54171;SDS011;40076;52.354;4.970;2023-05-10T03:19:22;59.58;;;36.67;;
54171;SDS011;40076;52.354;4.970;2023-05-10T03:21:52;53.13;;;35.53;;
54171;SDS011;40076;52.354;4.970;2023-05-10T03:24:20;56.05;;;35.13;;
54171;SDS011;40076;52.354;4.970;2023-05-10T03:26:48;57.08;;;36.00;;
54171;SDS011;40076;52.354;4.970;2023-05-10T03:29:15;53.55;;;35.03;;
54171;SDS011;40076;52.354;4.970;2023-05-10T03:31:42;50.55;;;32.10;;
54171;SDS011;40076;52.354;4.970;2023-05-10T03:34:07;55.72;;;33.05;;
54171;SDS011;40076;52.354;4.970;2023-05-10T03:36:33;61.90;;;35.30;;
54171;SDS011;40076;52.354;4.970;2023-05-10T03:38:58;56.75;;;36.60;;
54171;SDS011;40076;52.354;4.970;2023-05-10T03:41:23;62.38;;;38.05;;
54171;SDS011;40076;52.354;4.970;2023-05-10T03:43:50;65.88;;;37.90;;
54171;SDS011;40076;52.354;4.970;2023-05-10T03:46:15;67.53;;;39.05;;
54171;SDS011;40076;52.354;4.970;2023-05-10T03:48:41;70.70;;;40.08;;
54171;SDS011;40076;52.354;4.970;2023-05-10T03:51:06;72.82;;;41.70;;
54171;SDS011;40076;52.354;4.970;2023-05-10T03:53:31;74.55;;;40.50;;
54171;SDS011;40076;52.354;4.970;2023-05-10T03:55:57;57.70;;;32.20;;
54171;SDS011;40076;52.354;4.970;2023-05-10T03:58:22;52.20;;;30.20;;
54171;SDS011;40076;52.354;4.970;2023-05-10T04:00:47;55.20;;;31.42;;
54171;SDS011;40076;52.354;4.970;2023-05-10T04:03:13;57.28;;;31.85;;
54171;SDS011;40076;52.354;4.970;2023-05-10T04:05:39;52.70;;;31.45;;
54171;SDS011;40076;52.354;4.970;2023-05-10T04:08:04;53.33;;;30.45;;
54171;SDS011;40076;52.354;4.970;2023-05-10T04:10:30;46.42;;;29.23;;
54171;SDS011;40076;52.354;4.970;2023-05-10T04:12:55;49.05;;;29.77;;
54171;SDS011;40076;52.354;4.970;2023-05-10T04:15:21;49.78;;;31.08;;
54171;SDS011;40076;52.354;4.970;2023-05-10T04:17:46;49.53;;;30.58;;
54171;SDS011;40076;52.354;4.970;2023-05-10T04:20:12;53.95;;;31.45;;
54171;SDS011;40076;52.354;4.970;2023-05-10T04:22:38;56.85;;;33.05;;
54171;SDS011;40076;52.354;4.970;2023-05-10T04:25:03;59.88;;;33.13;;
54171;SDS011;40076;52.354;4.970;2023-05-10T04:27:29;56.15;;;31.98;;
54171;SDS011;40076;52.354;4.970;2023-05-10T04:29:57;54.25;;;32.83;;
54171;SDS011;40076;52.354;4.970;2023-05-10T04:32:23;49.53;;;32.47;;
54171;SDS011;40076;52.354;4.970;2023-05-10T04:34:48;55.38;;;31.88;;
54171;SDS011;40076;52.354;4.970;2023-05-10T04:37:13;48.65;;;31.70;;
54171;SDS011;40076;52.354;4.970;2023-05-10T04:39:39;54.72;;;31.63;;
54171;SDS011;40076;52.354;4.970;2023-05-10T04:42:04;50.88;;;30.65;;
54171;SDS011;40076;52.354;4.970;2023-05-10T04:44:30;57.78;;;30.67;;
54171;SDS011;40076;52.354;4.970;2023-05-10T04:46:59;49.72;;;29.63;;
54171;SDS011;40076;52.354;4.970;2023-05-10T04:49:24;57.17;;;32.90;;
54171;SDS011;40076;52.354;4.970;2023-05-10T04:51:50;52.90;;;31.45;;
54171;SDS011;40076;52.354;4.970;2023-05-10T04:54:15;50.88;;;29.42;;
54171;SDS011;40076;52.354;4.970;2023-05-10T04:56:40;49.00;;;29.45;;
54171;SDS011;40076;52.354;4.970;2023-05-10T04:59:06;57.83;;;32.05;;
54171;SDS011;40076;52.354;4.970;2023-05-10T05:01:31;51.00;;;31.63;;
54171;SDS011;40076;52.354;4.970;2023-05-10T05:03:57;53.22;;;30.88;;
54171;SDS011;40076;52.354;4.970;2023-05-10T05:06:23;55.47;;;30.15;;
54171;SDS011;40076;52.354;4.970;2023-05-10T05:08:49;51.13;;;29.77;;
54171;SDS011;40076;52.354;4.970;2023-05-10T05:11:15;52.03;;;30.77;;
54171;SDS011;40076;52.354;4.970;2023-05-10T05:13:40;47.60;;;26.88;;
54171;SDS011;40076;52.354;4.970;2023-05-10T05:16:06;47.63;;;26.75;;
54171;SDS011;40076;52.354;4.970;2023-05-10T05:18:31;55.45;;;27.80;;
54171;SDS011;40076;52.354;4.970;2023-05-10T05:21:00;49.10;;;26.52;;
54171;SDS011;40076;52.354;4.970;2023-05-10T05:23:25;48.30;;;26.50;;
54171;SDS011;40076;52.354;4.970;2023-05-10T05:25:51;44.08;;;24.65;;
54171;SDS011;40076;52.354;4.970;2023-05-10T05:28:18;51.13;;;27.00;;
54171;SDS011;40076;52.354;4.970;2023-05-10T05:30:59;43.55;;;25.13;;
54171;SDS011;40076;52.354;4.970;2023-05-10T05:33:25;48.42;;;26.73;;
54171;SDS011;40076;52.354;4.970;2023-05-10T05:35:50;43.22;;;25.35;;
54171;SDS011;40076;52.354;4.970;2023-05-10T05:38:16;37.58;;;23.52;;
54171;SDS011;40076;52.354;4.970;2023-05-10T05:40:42;36.03;;;22.85;;
54171;SDS011;40076;52.354;4.970;2023-05-10T05:43:07;36.40;;;23.75;;
54171;SDS011;40076;52.354;4.970;2023-05-10T05:45:32;40.10;;;23.80;;
54171;SDS011;40076;52.354;4.970;2023-05-10T05:47:58;33.58;;;22.10;;
54171;SDS011;40076;52.354;4.970;2023-05-10T05:50:23;35.92;;;23.10;;
54171;SDS011;40076;52.354;4.970;2023-05-10T05:52:48;35.47;;;22.23;;
54171;SDS011;40076;52.354;4.970;2023-05-10T05:55:14;38.10;;;22.35;;
54171;SDS011;40076;52.354;4.970;2023-05-10T05:57:39;33.17;;;21.00;;
54171;SDS011;40076;52.354;4.970;2023-05-10T06:00:05;31.05;;;19.40;;
54171;SDS011;40076;52.354;4.970;2023-05-10T06:02:31;29.50;;;19.35;;
54171;SDS011;40076;52.354;4.970;2023-05-10T06:04:56;29.08;;;18.90;;
54171;SDS011;40076;52.354;4.970;2023-05-10T06:07:21;29.10;;;19.13;;
54171;SDS011;40076;52.354;4.970;2023-05-10T06:09:47;27.55;;;17.58;;
54171;SDS011;40076;52.354;4.970;2023-05-10T06:12:12;26.55;;;19.00;;
54171;SDS011;40076;52.354;4.970;2023-05-10T06:14:37;28.10;;;17.83;;
54171;SDS011;40076;52.354;4.970;2023-05-10T06:17:03;27.58;;;17.83;;
54171;SDS011;40076;52.354;4.970;2023-05-10T06:19:30;30.25;;;18.63;;
54171;SDS011;40076;52.354;4.970;2023-05-10T06:21:55;29.10;;;17.65;;
54171;SDS011;40076;52.354;4.970;2023-05-10T06:24:21;31.42;;;18.13;;
54171;SDS011;40076;52.354;4.970;2023-05-10T06:26:46;26.50;;;17.50;;
54171;SDS011;40076;52.354;4.970;2023-05-10T06:29:12;28.95;;;17.25;;
54171;SDS011;40076;52.354;4.970;2023-05-10T06:31:37;26.25;;;16.02;;
54171;SDS011;40076;52.354;4.970;2023-05-10T06:34:02;24.15;;;16.15;;
54171;SDS011;40076;52.354;4.970;2023-05-10T06:36:27;23.63;;;17.13;;
54171;SDS011;40076;52.354;4.970;2023-05-10T06:38:53;25.65;;;17.27;;
54171;SDS011;40076;52.354;4.970;2023-05-10T06:41:18;23.40;;;16.90;;
54171;SDS011;40076;52.354;4.970;2023-05-10T06:43:43;27.63;;;17.70;;
54171;SDS011;40076;52.354;4.970;2023-05-10T06:46:09;26.35;;;18.02;;
54171;SDS011;40076;52.354;4.970;2023-05-10T06:48:34;28.48;;;18.50;;
54171;SDS011;40076;52.354;4.970;2023-05-10T06:50:59;26.52;;;18.40;;
54171;SDS011;40076;52.354;4.970;2023-05-10T06:53:25;32.35;;;20.00;;
54171;SDS011;40076;52.354;4.970;2023-05-10T06:55:50;32.80;;;19.90;;
54171;SDS011;40076;52.354;4.970;2023-05-10T06:58:15;31.08;;;19.98;;
54171;SDS011;40076;52.354;4.970;2023-05-10T07:00:41;24.15;;;17.05;;
54171;SDS011;40076;52.354;4.970;2023-05-10T07:03:09;24.95;;;16.63;;
54171;SDS011;40076;52.354;4.970;2023-05-10T07:05:34;23.95;;;17.58;;
54171;SDS011;40076;52.354;4.970;2023-05-10T07:08:00;26.77;;;17.67;;
54171;SDS011;40076;52.354;4.970;2023-05-10T07:10:26;26.63;;;18.17;;
54171;SDS011;40076;52.354;4.970;2023-05-10T07:12:51;24.60;;;18.13;;
54171;SDS011;40076;52.354;4.970;2023-05-10T07:15:16;22.35;;;15.35;;
54171;SDS011;40076;52.354;4.970;2023-05-10T07:17:42;22.25;;;14.55;;
54171;SDS011;40076;52.354;4.970;2023-05-10T07:20:07;26.60;;;17.20;;
54171;SDS011;40076;52.354;4.970;2023-05-10T07:22:33;23.02;;;15.82;;
54171;SDS011;40076;52.354;4.970;2023-05-10T07:24:58;27.70;;;17.38;;
54171;SDS011;40076;52.354;4.970;2023-05-10T07:27:24;23.85;;;16.52;;
54171;SDS011;40076;52.354;4.970;2023-05-10T07:29:49;26.38;;;15.93;;
54171;SDS011;40076;52.354;4.970;2023-05-10T07:32:14;21.20;;;16.00;;
54171;SDS011;40076;52.354;4.970;2023-05-10T07:34:40;23.90;;;16.83;;
54171;SDS011;40076;52.354;4.970;2023-05-10T07:37:05;25.80;;;16.30;;
54171;SDS011;40076;52.354;4.970;2023-05-10T07:39:31;26.13;;;16.95;;
54171;SDS011;40076;52.354;4.970;2023-05-10T07:41:56;25.38;;;16.98;;
54171;SDS011;40076;52.354;4.970;2023-05-10T07:44:22;26.13;;;18.55;;
54171;SDS011;40076;52.354;4.970;2023-05-10T07:46:47;30.05;;;18.55;;
54171;SDS011;40076;52.354;4.970;2023-05-10T07:49:13;26.08;;;17.48;;
54171;SDS011;40076;52.354;4.970;2023-05-10T07:51:38;28.05;;;18.75;;
54171;SDS011;40076;52.354;4.970;2023-05-10T07:54:04;25.67;;;18.42;;
54171;SDS011;40076;52.354;4.970;2023-05-10T07:56:30;25.45;;;18.38;;
54171;SDS011;40076;52.354;4.970;2023-05-10T07:58:56;25.85;;;18.38;;
54171;SDS011;40076;52.354;4.970;2023-05-10T08:01:23;25.92;;;18.70;;
54171;SDS011;40076;52.354;4.970;2023-05-10T08:03:48;29.23;;;19.13;;
54171;SDS011;40076;52.354;4.970;2023-05-10T08:06:17;24.98;;;18.15;;
54171;SDS011;40076;52.354;4.970;2023-05-10T08:08:43;26.05;;;17.95;;
54171;SDS011;40076;52.354;4.970;2023-05-10T08:11:14;27.48;;;18.27;;
54171;SDS011;40076;52.354;4.970;2023-05-10T08:13:40;25.90;;;19.35;;
54171;SDS011;40076;52.354;4.970;2023-05-10T08:16:05;26.00;;;18.63;;
54171;SDS011;40076;52.354;4.970;2023-05-10T08:18:30;26.73;;;19.73;;
54171;SDS011;40076;52.354;4.970;2023-05-10T08:20:56;29.33;;;19.30;;
54171;SDS011;40076;52.354;4.970;2023-05-10T08:23:21;25.13;;;16.52;;
54171;SDS011;40076;52.354;4.970;2023-05-10T08:25:46;19.40;;;14.05;;
54171;SDS011;40076;52.354;4.970;2023-05-10T08:28:12;19.52;;;13.63;;
54171;SDS011;40076;52.354;4.970;2023-05-10T08:30:37;17.77;;;11.95;;
54171;SDS011;40076;52.354;4.970;2023-05-10T08:33:02;14.65;;;10.68;;
54171;SDS011;40076;52.354;4.970;2023-05-10T08:35:28;14.10;;;10.60;;
54171;SDS011;40076;52.354;4.970;2023-05-10T08:37:53;14.32;;;10.60;;
54171;SDS011;40076;52.354;4.970;2023-05-10T08:40:19;13.93;;;9.70;;
54171;SDS011;40076;52.354;4.970;2023-05-10T08:42:47;12.60;;;9.48;;
54171;SDS011;40076;52.354;4.970;2023-05-10T08:45:19;12.88;;;8.18;;
54171;SDS011;40076;52.354;4.970;2023-05-10T08:47:48;9.30;;;7.50;;
54171;SDS011;40076;52.354;4.970;2023-05-10T08:50:14;11.73;;;7.63;;
54171;SDS011;40076;52.354;4.970;2023-05-10T08:52:40;9.55;;;7.30;;
54171;SDS011;40076;52.354;4.970;2023-05-10T08:55:06;14.00;;;8.55;;
54171;SDS011;40076;52.354;4.970;2023-05-10T08:57:32;12.13;;;8.25;;
54171;SDS011;40076;52.354;4.970;2023-05-10T08:59:57;11.48;;;7.50;;
54171;SDS011;40076;52.354;4.970;2023-05-10T09:02:25;8.70;;;7.03;;
54171;SDS011;40076;52.354;4.970;2023-05-10T09:04:51;11.20;;;7.10;;
54171;SDS011;40076;52.354;4.970;2023-05-10T09:07:16;9.18;;;7.10;;
54171;SDS011;40076;52.354;4.970;2023-05-10T09:09:42;10.55;;;7.47;;
54171;SDS011;40076;52.354;4.970;2023-05-10T09:12:08;8.75;;;6.72;;
54171;SDS011;40076;52.354;4.970;2023-05-10T09:14:36;8.35;;;6.43;;
54171;SDS011;40076;52.354;4.970;2023-05-10T09:17:03;10.63;;;6.75;;
54171;SDS011;40076;52.354;4.970;2023-05-10T09:19:29;9.93;;;6.85;;
54171;SDS011;40076;52.354;4.970;2023-05-10T09:21:54;9.57;;;6.35;;
54171;SDS011;40076;52.354;4.970;2023-05-10T09:24:20;10.85;;;7.75;;
54171;SDS011;40076;52.354;4.970;2023-05-10T09:26:50;11.80;;;6.97;;
54171;SDS011;40076;52.354;4.970;2023-05-10T09:29:16;9.45;;;6.93;;
54171;SDS011;40076;52.354;4.970;2023-05-10T09:31:45;8.75;;;6.38;;
54171;SDS011;40076;52.354;4.970;2023-05-10T09:34:15;9.75;;;6.32;;
54171;SDS011;40076;52.354;4.970;2023-05-10T09:36:51;10.27;;;6.10;;
54171;SDS011;40076;52.354;4.970;2023-05-10T09:39:25;8.02;;;5.85;;
54171;SDS011;40076;52.354;4.970;2023-05-10T09:41:55;7.95;;;5.82;;
54171;SDS011;40076;52.354;4.970;2023-05-10T09:44:21;7.40;;;5.43;;
54171;SDS011;40076;52.354;4.970;2023-05-10T09:46:50;11.00;;;6.07;;
54171;SDS011;40076;52.354;4.970;2023-05-10T09:49:16;10.07;;;6.03;;
54171;SDS011;40076;52.354;4.970;2023-05-10T09:51:41;8.77;;;6.00;;
54171;SDS011;40076;52.354;4.970;2023-05-10T09:56:36;8.93;;;6.55;;
54171;SDS011;40076;52.354;4.970;2023-05-10T09:59:04;10.00;;;6.82;;
54171;SDS011;40076;52.354;4.970;2023-05-10T10:01:30;8.95;;;5.95;;
54171;SDS011;40076;52.354;4.970;2023-05-10T10:03:56;9.30;;;5.38;;
54171;SDS011;40076;52.354;4.970;2023-05-10T10:06:24;8.73;;;5.15;;
54171;SDS011;40076;52.354;4.970;2023-05-10T10:08:50;8.82;;;4.78;;
54171;SDS011;40076;52.354;4.970;2023-05-10T10:11:16;6.47;;;4.35;;
54171;SDS011;40076;52.354;4.970;2023-05-10T10:13:41;11.45;;;4.43;;
54171;SDS011;40076;52.354;4.970;2023-05-10T10:16:08;7.10;;;3.80;;
54171;SDS011;40076;52.354;4.970;2023-05-10T10:18:34;7.15;;;4.25;;
54171;SDS011;40076;52.354;4.970;2023-05-10T10:21:03;6.90;;;4.50;;
54171;SDS011;40076;52.354;4.970;2023-05-10T10:23:30;7.50;;;4.57;;
54171;SDS011;40076;52.354;4.970;2023-05-10T10:25:56;8.82;;;4.93;;
54171;SDS011;40076;52.354;4.970;2023-05-10T10:30:57;10.95;;;5.30;;
54171;SDS011;40076;52.354;4.970;2023-05-10T10:33:40;8.02;;;4.50;;
54171;SDS011;40076;52.354;4.970;2023-05-10T10:36:16;11.07;;;5.00;;
54171;SDS011;40076;52.354;4.970;2023-05-10T10:41:11;8.23;;;4.30;;
54171;SDS011;40076;52.354;4.970;2023-05-10T10:49:25;7.32;;;3.70;;
54171;SDS011;40076;52.354;4.970;2023-05-10T10:57:35;6.03;;;3.90;;
54171;SDS011;40076;52.354;4.970;2023-05-10T11:00:18;5.93;;;3.60;;
54171;SDS011;40076;52.354;4.970;2023-05-10T11:02:53;5.93;;;3.58;;
54171;SDS011;40076;52.354;4.970;2023-05-10T11:05:22;5.78;;;3.55;;
54171;SDS011;40076;52.354;4.970;2023-05-10T11:07:55;7.53;;;3.88;;
54171;SDS011;40076;52.354;4.970;2023-05-10T11:10:23;6.25;;;3.78;;
54171;SDS011;40076;52.354;4.970;2023-05-10T11:13:03;7.30;;;4.45;;
54171;SDS011;40076;52.354;4.970;2023-05-10T11:15:34;9.57;;;4.63;;
54171;SDS011;40076;52.354;4.970;2023-05-10T11:18:20;8.52;;;4.70;;
54171;SDS011;40076;52.354;4.970;2023-05-10T11:21:08;7.88;;;4.63;;
54171;SDS011;40076;52.354;4.970;2023-05-10T11:26:09;7.18;;;4.00;;
54171;SDS011;40076;52.354;4.970;2023-05-10T11:28:42;7.68;;;4.22;;
54171;SDS011;40076;52.354;4.970;2023-05-10T11:31:08;9.85;;;4.72;;
54171;SDS011;40076;52.354;4.970;2023-05-10T11:33:48;7.78;;;4.38;;
54171;SDS011;40076;52.354;4.970;2023-05-10T11:36:15;8.25;;;4.20;;
54171;SDS011;40076;52.354;4.970;2023-05-10T11:38:57;7.13;;;4.93;;
54171;SDS011;40076;52.354;4.970;2023-05-10T11:41:23;12.30;;;5.40;;
54171;SDS011;40076;52.354;4.970;2023-05-10T11:43:50;9.45;;;4.93;;
54171;SDS011;40076;52.354;4.970;2023-05-10T11:46:18;8.02;;;4.88;;
54171;SDS011;40076;52.354;4.970;2023-05-10T11:48:45;7.50;;;4.82;;
54171;SDS011;40076;52.354;4.970;2023-05-10T11:51:14;8.07;;;4.40;;
54171;SDS011;40076;52.354;4.970;2023-05-10T11:53:39;9.93;;;4.88;;
54171;SDS011;40076;52.354;4.970;2023-05-10T11:56:05;9.05;;;4.97;;
54171;SDS011;40076;52.354;4.970;2023-05-10T11:58:32;10.43;;;5.72;;
54171;SDS011;40076;52.354;4.970;2023-05-10T12:00:58;10.82;;;6.10;;
54171;SDS011;40076;52.354;4.970;2023-05-10T12:03:24;9.15;;;5.78;;
54171;SDS011;40076;52.354;4.970;2023-05-10T12:05:50;9.68;;;5.75;;
54171;SDS011;40076;52.354;4.970;2023-05-10T12:08:15;9.43;;;6.00;;
54171;SDS011;40076;52.354;4.970;2023-05-10T12:10:45;10.60;;;6.70;;
54171;SDS011;40076;52.354;4.970;2023-05-10T12:13:11;11.98;;;7.05;;
54171;SDS011;40076;52.354;4.970;2023-05-10T12:15:40;9.93;;;6.72;;
54171;SDS011;40076;52.354;4.970;2023-05-10T12:18:10;11.13;;;7.25;;
54171;SDS011;40076;52.354;4.970;2023-05-10T12:20:39;10.68;;;7.45;;
54171;SDS011;40076;52.354;4.970;2023-05-10T12:23:04;10.90;;;6.65;;
54171;SDS011;40076;52.354;4.970;2023-05-10T12:25:34;10.75;;;7.07;;
54171;SDS011;40076;52.354;4.970;2023-05-10T12:28:02;11.93;;;7.53;;
54171;SDS011;40076;52.354;4.970;2023-05-10T12:30:30;12.95;;;7.15;;
54171;SDS011;40076;52.354;4.970;2023-05-10T12:33:30;11.98;;;6.53;;
54171;SDS011;40076;52.354;4.970;2023-05-10T12:35:52;10.93;;;6.05;;
54171;SDS011;40076;52.354;4.970;2023-05-10T12:38:28;11.13;;;6.18;;
54171;SDS011;40076;52.354;4.970;2023-05-10T12:40:59;11.35;;;6.15;;
54171;SDS011;40076;52.354;4.970;2023-05-10T12:43:25;11.75;;;6.05;;
54171;SDS011;40076;52.354;4.970;2023-05-10T12:45:51;11.63;;;6.50;;
54171;SDS011;40076;52.354;4.970;2023-05-10T12:48:16;16.30;;;7.50;;
54171;SDS011;40076;52.354;4.970;2023-05-10T12:50:41;11.32;;;6.60;;
54171;SDS011;40076;52.354;4.970;2023-05-10T12:53:07;11.32;;;6.05;;
54171;SDS011;40076;52.354;4.970;2023-05-10T12:55:32;9.50;;;6.22;;
54171;SDS011;40076;52.354;4.970;2023-05-10T12:57:57;11.43;;;6.45;;
54171;SDS011;40076;52.354;4.970;2023-05-10T13:00:23;8.55;;;4.90;;
54171;SDS011;40076;52.354;4.970;2023-05-10T13:02:48;8.48;;;5.50;;
54171;SDS011;40076;52.354;4.970;2023-05-10T13:05:14;9.73;;;5.82;;
54171;SDS011;40076;52.354;4.970;2023-05-10T13:07:39;9.50;;;6.07;;
54171;SDS011;40076;52.354;4.970;2023-05-10T13:10:05;12.15;;;6.70;;
54171;SDS011;40076;52.354;4.970;2023-05-10T13:12:31;9.77;;;5.68;;
54171;SDS011;40076;52.354;4.970;2023-05-10T13:14:56;10.73;;;5.28;;
54171;SDS011;40076;52.354;4.970;2023-05-10T13:17:22;8.88;;;5.00;;
54171;SDS011;40076;52.354;4.970;2023-05-10T13:19:47;5.72;;;3.85;;
54171;SDS011;40076;52.354;4.970;2023-05-10T13:22:13;5.70;;;3.65;;
54171;SDS011;40076;52.354;4.970;2023-05-10T13:24:38;4.85;;;3.20;;
54171;SDS011;40076;52.354;4.970;2023-05-10T13:27:03;6.45;;;3.30;;
54171;SDS011;40076;52.354;4.970;2023-05-10T13:29:28;7.68;;;3.35;;
54171;SDS011;40076;52.354;4.970;2023-05-10T13:31:54;5.05;;;3.50;;
54171;SDS011;40076;52.354;4.970;2023-05-10T13:34:19;5.28;;;3.45;;
54171;SDS011;40076;52.354;4.970;2023-05-10T13:36:47;6.90;;;3.72;;
54171;SDS011;40076;52.354;4.970;2023-05-10T13:39:13;7.57;;;3.42;;
54171;SDS011;40076;52.354;4.970;2023-05-10T13:41:39;6.93;;;3.97;;
54171;SDS011;40076;52.354;4.970;2023-05-10T13:44:04;6.55;;;4.05;;
54171;SDS011;40076;52.354;4.970;2023-05-10T13:46:29;6.30;;;4.00;;
54171;SDS011;40076;52.354;4.970;2023-05-10T13:48:55;7.03;;;3.90;;
54171;SDS011;40076;52.354;4.970;2023-05-10T13:51:21;6.05;;;3.50;;
54171;SDS011;40076;52.354;4.970;2023-05-10T13:53:47;5.22;;;3.50;;
54171;SDS011;40076;52.354;4.970;2023-05-10T13:56:12;6.53;;;3.88;;
54171;SDS011;40076;52.354;4.970;2023-05-10T13:58:38;8.75;;;4.40;;
54171;SDS011;40076;52.354;4.970;2023-05-10T14:01:03;9.23;;;4.72;;
54171;SDS011;40076;52.354;4.970;2023-05-10T14:03:29;7.10;;;5.18;;
54171;SDS011;40076;52.354;4.970;2023-05-10T14:05:55;11.13;;;6.00;;
54171;SDS011;40076;52.354;4.970;2023-05-10T14:08:20;10.00;;;6.13;;
54171;SDS011;40076;52.354;4.970;2023-05-10T14:10:46;11.55;;;6.65;;
54171;SDS011;40076;52.354;4.970;2023-05-10T14:13:11;12.40;;;6.32;;
54171;SDS011;40076;52.354;4.970;2023-05-10T14:15:37;10.15;;;6.25;;
54171;SDS011;40076;52.354;4.970;2023-05-10T14:18:02;10.60;;;6.43;;
54171;SDS011;40076;52.354;4.970;2023-05-10T14:20:28;12.32;;;7.03;;
54171;SDS011;40076;52.354;4.970;2023-05-10T14:22:53;10.60;;;6.97;;
54171;SDS011;40076;52.354;4.970;2023-05-10T14:25:19;10.80;;;6.05;;
54171;SDS011;40076;52.354;4.970;2023-05-10T14:27:44;11.55;;;7.60;;
54171;SDS011;40076;52.354;4.970;2023-05-10T14:30:10;11.73;;;6.60;;
54171;SDS011;40076;52.354;4.970;2023-05-10T14:32:36;11.00;;;6.80;;
54171;SDS011;40076;52.354;4.970;2023-05-10T14:35:02;13.23;;;7.13;;
54171;SDS011;40076;52.354;4.970;2023-05-10T14:37:27;9.25;;;5.70;;
54171;SDS011;40076;52.354;4.970;2023-05-10T14:39:53;9.65;;;6.25;;
54171;SDS011;40076;52.354;4.970;2023-05-10T14:42:18;9.32;;;5.07;;
54171;SDS011;40076;52.354;4.970;2023-05-10T14:44:44;8.90;;;4.75;;
54171;SDS011;40076;52.354;4.970;2023-05-10T14:47:09;6.85;;;4.75;;
54171;SDS011;40076;52.354;4.970;2023-05-10T14:49:34;8.60;;;5.13;;
54171;SDS011;40076;52.354;4.970;2023-05-10T14:52:00;8.55;;;4.80;;
54171;SDS011;40076;52.354;4.970;2023-05-10T14:54:25;8.23;;;4.95;;
54171;SDS011;40076;52.354;4.970;2023-05-10T14:56:51;8.30;;;4.97;;
54171;SDS011;40076;52.354;4.970;2023-05-10T14:59:16;9.02;;;4.13;;
54171;SDS011;40076;52.354;4.970;2023-05-10T15:01:42;7.80;;;4.07;;
54171;SDS011;40076;52.354;4.970;2023-05-10T15:04:07;4.40;;;3.00;;
54171;SDS011;40076;52.354;4.970;2023-05-10T15:06:33;6.18;;;2.97;;
54171;SDS011;40076;52.354;4.970;2023-05-10T15:09:00;5.57;;;3.70;;
54171;SDS011;40076;52.354;4.970;2023-05-10T15:11:26;7.43;;;4.05;;